sensor_id;sensor_type;location;lat;lon;timestamp;temperature;humidity
13035;DHT22;6584;48.022;11.810;2022-08-14T00:02:01;17.10;99.90
13035;DHT22;6584;48.022;11.810;2022-08-14T00:04:27;17.00;99.90
13035;DHT22;6584;48.022;11.810;2022-08-14T00:06:53;16.90;99.90
13035;DHT22;6584;48.022;11.810;2022-08-14T00:09:18;17.00;99.90
13035;DHT22;6584;48.022;11.810;2022-08-14T00:11:44;17.00;99.90
13035;DHT22;6584;48.022;11.810;2022-08-14T00:14:09;17.10;99.90
13035;DHT22;6584;48.022;11.810;2022-08-14T00:16:35;17.20;99.90
13035;DHT22;6584;48.022;11.810;2022-08-14T00:19:02;17.20;99.90
13035;DHT22;6584;48.022;11.810;2022-08-14T00:21:28;17.20;99.90
13035;DHT22;6584;48.022;11.810;2022-08-14T00:23:54;17.10;99.90
13035;DHT22;6584;48.022;11.810;2022-08-14T00:26:21;17.00;99.90
13035;DHT22;6584;48.022;11.810;2022-08-14T00:28:47;16.90;99.90
13035;DHT22;6584;48.022;11.810;2022-08-14T00:31:13;16.80;99.90
13035;DHT22;6584;48.022;11.810;2022-08-14T00:33:39;16.80;99.90
13035;DHT22;6584;48.022;11.810;2022-08-14T00:36:05;16.70;99.90
13035;DHT22;6584;48.022;11.810;2022-08-14T00:38:31;16.70;99.90
13035;DHT22;6584;48.022;11.810;2022-08-14T00:40:57;16.80;99.90
13035;DHT22;6584;48.022;11.810;2022-08-14T00:43:23;16.80;99.90
13035;DHT22;6584;48.022;11.810;2022-08-14T00:45:48;17.00;99.90
13035;DHT22;6584;48.022;11.810;2022-08-14T00:48:15;16.80;99.90
13035;DHT22;6584;48.022;11.810;2022-08-14T00:50:43;16.60;99.90
13035;DHT22;6584;48.022;11.810;2022-08-14T00:53:09;16.60;99.90
13035;DHT22;6584;48.022;11.810;2022-08-14T00:55:36;16.60;99.90
13035;DHT22;6584;48.022;11.810;2022-08-14T00:58:06;16.70;99.90
13035;DHT22;6584;48.022;11.810;2022-08-14T01:00:50;16.70;99.90
13035;DHT22;6584;48.022;11.810;2022-08-14T01:03:18;16.70;99.90
13035;DHT22;6584;48.022;11.810;2022-08-14T01:05:45;16.70;99.90
13035;DHT22;6584;48.022;11.810;2022-08-14T01:08:25;16.60;99.90
13035;DHT22;6584;48.022;11.810;2022-08-14T01:10:52;16.60;99.90
13035;DHT22;6584;48.022;11.810;2022-08-14T01:13:27;16.50;99.90
13035;DHT22;6584;48.022;11.810;2022-08-14T01:15:56;16.50;99.90
13035;DHT22;6584;48.022;11.810;2022-08-14T01:18:24;16.40;99.90
13035;DHT22;6584;48.022;11.810;2022-08-14T01:21:09;16.30;99.90
13035;DHT22;6584;48.022;11.810;2022-08-14T01:23:42;16.30;99.90
13035;DHT22;6584;48.022;11.810;2022-08-14T01:26:09;16.40;99.90
13035;DHT22;6584;48.022;11.810;2022-08-14T01:28:37;16.50;99.90
13035;DHT22;6584;48.022;11.810;2022-08-14T01:31:09;16.40;99.90
13035;DHT22;6584;48.022;11.810;2022-08-14T01:33:37;16.40;99.90
13035;DHT22;6584;48.022;11.810;2022-08-14T01:36:05;16.30;99.90
13035;DHT22;6584;48.022;11.810;2022-08-14T01:38:33;16.30;99.90
13035;DHT22;6584;48.022;11.810;2022-08-14T01:41:06;16.30;99.90
13035;DHT22;6584;48.022;11.810;2022-08-14T01:43:41;16.20;99.90
13035;DHT22;6584;48.022;11.810;2022-08-14T01:46:07;16.20;99.90
13035;DHT22;6584;48.022;11.810;2022-08-14T01:48:36;16.10;99.90
13035;DHT22;6584;48.022;11.810;2022-08-14T01:51:02;16.00;99.90
13035;DHT22;6584;48.022;11.810;2022-08-14T01:53:28;16.00;99.90
13035;DHT22;6584;48.022;11.810;2022-08-14T01:55:59;16.10;99.90
13035;DHT22;6584;48.022;11.810;2022-08-14T01:58:26;16.10;99.90
13035;DHT22;6584;48.022;11.810;2022-08-14T02:00:54;16.10;99.90
13035;DHT22;6584;48.022;11.810;2022-08-14T02:03:21;16.10;99.90
13035;DHT22;6584;48.022;11.810;2022-08-14T02:05:48;16.00;99.90
13035;DHT22;6584;48.022;11.810;2022-08-14T02:08:14;16.00;99.90
13035;DHT22;6584;48.022;11.810;2022-08-14T02:10:41;15.90;99.90
13035;DHT22;6584;48.022;11.810;2022-08-14T02:13:07;16.00;99.90
13035;DHT22;6584;48.022;11.810;2022-08-14T02:15:33;15.80;99.90
13035;DHT22;6584;48.022;11.810;2022-08-14T02:17:59;15.70;99.90
13035;DHT22;6584;48.022;11.810;2022-08-14T02:20:32;15.70;99.90
13035;DHT22;6584;48.022;11.810;2022-08-14T02:22:59;15.60;99.90
13035;DHT22;6584;48.022;11.810;2022-08-14T02:25:25;15.60;99.90
13035;DHT22;6584;48.022;11.810;2022-08-14T02:27:50;15.60;99.90
13035;DHT22;6584;48.022;11.810;2022-08-14T02:30:23;15.70;99.90
13035;DHT22;6584;48.022;11.810;2022-08-14T02:32:51;15.80;99.90
13035;DHT22;6584;48.022;11.810;2022-08-14T02:35:17;15.90;99.90
13035;DHT22;6584;48.022;11.810;2022-08-14T02:37:44;15.70;99.90
13035;DHT22;6584;48.022;11.810;2022-08-14T02:40:10;15.70;99.90
13035;DHT22;6584;48.022;11.810;2022-08-14T02:42:37;15.70;99.90
13035;DHT22;6584;48.022;11.810;2022-08-14T02:45:04;15.60;99.90
13035;DHT22;6584;48.022;11.810;2022-08-14T02:47:30;15.50;99.90
13035;DHT22;6584;48.022;11.810;2022-08-14T02:49:56;15.40;99.90
13035;DHT22;6584;48.022;11.810;2022-08-14T02:52:22;15.30;99.90
13035;DHT22;6584;48.022;11.810;2022-08-14T02:54:48;15.20;99.90
13035;DHT22;6584;48.022;11.810;2022-08-14T02:57:13;15.20;99.90
13035;DHT22;6584;48.022;11.810;2022-08-14T02:59:40;15.30;99.90
13035;DHT22;6584;48.022;11.810;2022-08-14T03:02:06;15.30;99.90
13035;DHT22;6584;48.022;11.810;2022-08-14T03:04:32;15.30;99.90
13035;DHT22;6584;48.022;11.810;2022-08-14T03:06:58;15.30;99.90
13035;DHT22;6584;48.022;11.810;2022-08-14T03:09:24;15.40;99.90
13035;DHT22;6584;48.022;11.810;2022-08-14T03:11:50;15.50;99.90
13035;DHT22;6584;48.022;11.810;2022-08-14T03:14:16;15.20;99.90
13035;DHT22;6584;48.022;11.810;2022-08-14T03:16:42;15.30;99.90
13035;DHT22;6584;48.022;11.810;2022-08-14T03:19:09;15.20;99.90
13035;DHT22;6584;48.022;11.810;2022-08-14T03:21:36;15.20;99.90
13035;DHT22;6584;48.022;11.810;2022-08-14T03:24:03;15.30;99.90
13035;DHT22;6584;48.022;11.810;2022-08-14T03:26:31;15.30;99.90
13035;DHT22;6584;48.022;11.810;2022-08-14T03:28:57;15.30;99.90
13035;DHT22;6584;48.022;11.810;2022-08-14T03:31:22;15.30;99.90
13035;DHT22;6584;48.022;11.810;2022-08-14T03:33:49;15.30;99.90
13035;DHT22;6584;48.022;11.810;2022-08-14T03:36:17;15.30;99.90
13035;DHT22;6584;48.022;11.810;2022-08-14T03:38:46;15.30;99.90
13035;DHT22;6584;48.022;11.810;2022-08-14T03:41:17;15.20;99.90
13035;DHT22;6584;48.022;11.810;2022-08-14T03:43:44;15.20;99.90
13035;DHT22;6584;48.022;11.810;2022-08-14T03:46:10;15.10;99.90
13035;DHT22;6584;48.022;11.810;2022-08-14T03:48:37;15.10;99.90
13035;DHT22;6584;48.022;11.810;2022-08-14T03:51:05;14.90;99.90
13035;DHT22;6584;48.022;11.810;2022-08-14T03:53:33;14.80;99.90
13035;DHT22;6584;48.022;11.810;2022-08-14T03:56:01;14.70;99.90
13035;DHT22;6584;48.022;11.810;2022-08-14T03:58:27;14.80;99.90
13035;DHT22;6584;48.022;11.810;2022-08-14T04:00:53;14.80;99.90
13035;DHT22;6584;48.022;11.810;2022-08-14T04:03:19;14.70;99.90
13035;DHT22;6584;48.022;11.810;2022-08-14T04:05:46;14.60;99.90
13035;DHT22;6584;48.022;11.810;2022-08-14T04:08:11;14.70;99.90
13035;DHT22;6584;48.022;11.810;2022-08-14T04:10:37;14.80;99.90
13035;DHT22;6584;48.022;11.810;2022-08-14T04:13:03;14.90;99.90
13035;DHT22;6584;48.022;11.810;2022-08-14T04:15:33;15.00;99.90
13035;DHT22;6584;48.022;11.810;2022-08-14T04:18:04;15.10;99.90
13035;DHT22;6584;48.022;11.810;2022-08-14T04:20:33;15.20;99.90
13035;DHT22;6584;48.022;11.810;2022-08-14T04:22:59;15.30;99.90
13035;DHT22;6584;48.022;11.810;2022-08-14T04:25:24;15.30;99.90
13035;DHT22;6584;48.022;11.810;2022-08-14T04:27:50;15.20;99.90
13035;DHT22;6584;48.022;11.810;2022-08-14T04:30:15;15.20;99.90
13035;DHT22;6584;48.022;11.810;2022-08-14T04:32:41;15.20;99.90
13035;DHT22;6584;48.022;11.810;2022-08-14T04:35:07;15.20;99.90
13035;DHT22;6584;48.022;11.810;2022-08-14T04:37:33;15.20;99.90
13035;DHT22;6584;48.022;11.810;2022-08-14T04:40:17;15.20;99.90
13035;DHT22;6584;48.022;11.810;2022-08-14T04:43:01;15.20;99.90
13035;DHT22;6584;48.022;11.810;2022-08-14T04:45:45;15.30;99.90
13035;DHT22;6584;48.022;11.810;2022-08-14T04:48:13;15.30;99.90
13035;DHT22;6584;48.022;11.810;2022-08-14T04:50:40;15.30;99.90
13035;DHT22;6584;48.022;11.810;2022-08-14T04:53:07;15.40;99.90
13035;DHT22;6584;48.022;11.810;2022-08-14T04:55:32;15.20;99.90
13035;DHT22;6584;48.022;11.810;2022-08-14T04:57:58;15.30;99.90
13035;DHT22;6584;48.022;11.810;2022-08-14T05:00:24;15.50;99.90
13035;DHT22;6584;48.022;11.810;2022-08-14T05:02:51;15.70;99.90
13035;DHT22;6584;48.022;11.810;2022-08-14T05:05:17;16.00;99.90
13035;DHT22;6584;48.022;11.810;2022-08-14T05:07:45;16.20;99.90
13035;DHT22;6584;48.022;11.810;2022-08-14T05:10:10;16.30;99.90
13035;DHT22;6584;48.022;11.810;2022-08-14T05:12:37;16.50;99.90
13035;DHT22;6584;48.022;11.810;2022-08-14T05:15:04;16.80;99.90
13035;DHT22;6584;48.022;11.810;2022-08-14T05:17:32;17.30;99.90
13035;DHT22;6584;48.022;11.810;2022-08-14T05:19:57;18.00;99.90
13035;DHT22;6584;48.022;11.810;2022-08-14T05:22:23;18.80;99.90
13035;DHT22;6584;48.022;11.810;2022-08-14T05:24:49;20.00;99.90
13035;DHT22;6584;48.022;11.810;2022-08-14T05:27:15;21.30;99.90
13035;DHT22;6584;48.022;11.810;2022-08-14T05:29:44;22.00;99.90
13035;DHT22;6584;48.022;11.810;2022-08-14T05:32:10;22.60;99.90
13035;DHT22;6584;48.022;11.810;2022-08-14T05:34:37;23.20;99.90
13035;DHT22;6584;48.022;11.810;2022-08-14T05:37:03;23.70;99.90
13035;DHT22;6584;48.022;11.810;2022-08-14T05:39:30;23.60;99.90
13035;DHT22;6584;48.022;11.810;2022-08-14T05:41:55;23.70;99.90
13035;DHT22;6584;48.022;11.810;2022-08-14T05:44:21;24.60;99.90
13035;DHT22;6584;48.022;11.810;2022-08-14T05:46:47;25.20;99.50
13035;DHT22;6584;48.022;11.810;2022-08-14T05:49:13;25.50;99.10
13035;DHT22;6584;48.022;11.810;2022-08-14T05:51:39;26.00;98.10
13035;DHT22;6584;48.022;11.810;2022-08-14T05:54:06;26.40;97.00
13035;DHT22;6584;48.022;11.810;2022-08-14T05:56:31;26.20;96.50
13035;DHT22;6584;48.022;11.810;2022-08-14T05:58:57;26.30;95.60
13035;DHT22;6584;48.022;11.810;2022-08-14T06:01:23;26.10;95.80
13035;DHT22;6584;48.022;11.810;2022-08-14T06:03:49;26.70;95.10
13035;DHT22;6584;48.022;11.810;2022-08-14T06:06:15;27.70;94.50
13035;DHT22;6584;48.022;11.810;2022-08-14T06:08:42;27.20;94.80
13035;DHT22;6584;48.022;11.810;2022-08-14T06:11:08;27.00;94.50
13035;DHT22;6584;48.022;11.810;2022-08-14T06:13:38;26.30;94.80
13035;DHT22;6584;48.022;11.810;2022-08-14T06:16:04;26.90;95.50
13035;DHT22;6584;48.022;11.810;2022-08-14T06:18:30;27.50;94.50
13035;DHT22;6584;48.022;11.810;2022-08-14T06:20:56;27.80;93.80
13035;DHT22;6584;48.022;11.810;2022-08-14T06:23:22;27.90;93.30
13035;DHT22;6584;48.022;11.810;2022-08-14T06:25:47;28.40;94.50
13035;DHT22;6584;48.022;11.810;2022-08-14T06:28:23;29.10;94.00
13035;DHT22;6584;48.022;11.810;2022-08-14T06:30:49;28.80;94.10
13035;DHT22;6584;48.022;11.810;2022-08-14T06:33:17;28.60;93.50
13035;DHT22;6584;48.022;11.810;2022-08-14T06:35:43;26.90;94.50
13035;DHT22;6584;48.022;11.810;2022-08-14T06:38:14;26.70;95.20
13035;DHT22;6584;48.022;11.810;2022-08-14T06:40:40;27.00;96.20
13035;DHT22;6584;48.022;11.810;2022-08-14T06:43:08;27.90;95.50
13035;DHT22;6584;48.022;11.810;2022-08-14T06:45:35;28.70;94.40
13035;DHT22;6584;48.022;11.810;2022-08-14T06:48:01;28.90;93.70
13035;DHT22;6584;48.022;11.810;2022-08-14T06:50:28;29.30;93.30
13035;DHT22;6584;48.022;11.810;2022-08-14T06:52:54;29.40;93.00
13035;DHT22;6584;48.022;11.810;2022-08-14T06:55:20;29.00;93.20
13035;DHT22;6584;48.022;11.810;2022-08-14T06:57:48;27.80;93.70
13035;DHT22;6584;48.022;11.810;2022-08-14T07:02:44;27.70;93.90
13035;DHT22;6584;48.022;11.810;2022-08-14T07:05:28;27.70;93.90
13035;DHT22;6584;48.022;11.810;2022-08-14T07:08:21;27.60;94.40
13035;DHT22;6584;48.022;11.810;2022-08-14T07:10:52;27.50;94.40
13035;DHT22;6584;48.022;11.810;2022-08-14T07:13:18;27.10;94.50
13035;DHT22;6584;48.022;11.810;2022-08-14T07:15:45;26.50;95.50
13035;DHT22;6584;48.022;11.810;2022-08-14T07:18:13;25.90;95.70
13035;DHT22;6584;48.022;11.810;2022-08-14T07:20:39;25.50;96.50
13035;DHT22;6584;48.022;11.810;2022-08-14T07:23:07;24.70;97.10
13035;DHT22;6584;48.022;11.810;2022-08-14T07:25:33;24.50;97.90
13035;DHT22;6584;48.022;11.810;2022-08-14T07:27:59;23.90;98.10
13035;DHT22;6584;48.022;11.810;2022-08-14T07:30:25;23.60;98.80
13035;DHT22;6584;48.022;11.810;2022-08-14T07:32:51;23.40;99.20
13035;DHT22;6584;48.022;11.810;2022-08-14T07:35:17;22.80;99.90
13035;DHT22;6584;48.022;11.810;2022-08-14T07:37:46;22.90;99.90
13035;DHT22;6584;48.022;11.810;2022-08-14T07:40:12;22.90;99.90
13035;DHT22;6584;48.022;11.810;2022-08-14T07:42:37;22.90;99.90
13035;DHT22;6584;48.022;11.810;2022-08-14T07:45:03;22.90;99.90
13035;DHT22;6584;48.022;11.810;2022-08-14T07:47:29;23.20;99.90
13035;DHT22;6584;48.022;11.810;2022-08-14T07:50:05;23.30;99.90
13035;DHT22;6584;48.022;11.810;2022-08-14T07:52:32;23.30;99.90
13035;DHT22;6584;48.022;11.810;2022-08-14T07:54:59;23.30;99.50
13035;DHT22;6584;48.022;11.810;2022-08-14T07:57:24;23.50;99.50
13035;DHT22;6584;48.022;11.810;2022-08-14T07:59:52;23.50;98.90
13035;DHT22;6584;48.022;11.810;2022-08-14T08:02:18;23.30;98.80
13035;DHT22;6584;48.022;11.810;2022-08-14T08:04:45;23.30;99.70
13035;DHT22;6584;48.022;11.810;2022-08-14T08:07:11;23.30;99.70
13035;DHT22;6584;48.022;11.810;2022-08-14T08:09:42;23.40;99.40
13035;DHT22;6584;48.022;11.810;2022-08-14T08:12:08;23.60;99.90
13035;DHT22;6584;48.022;11.810;2022-08-14T08:14:35;23.50;99.90
13035;DHT22;6584;48.022;11.810;2022-08-14T08:17:01;23.60;98.50
13035;DHT22;6584;48.022;11.810;2022-08-14T08:19:27;23.70;99.40
13035;DHT22;6584;48.022;11.810;2022-08-14T08:21:53;23.70;99.30
13035;DHT22;6584;48.022;11.810;2022-08-14T08:24:19;23.70;99.00
13035;DHT22;6584;48.022;11.810;2022-08-14T08:26:44;23.60;98.90
13035;DHT22;6584;48.022;11.810;2022-08-14T08:29:18;23.60;99.00
13035;DHT22;6584;48.022;11.810;2022-08-14T08:31:47;23.70;99.10
13035;DHT22;6584;48.022;11.810;2022-08-14T08:34:15;23.50;98.20
13035;DHT22;6584;48.022;11.810;2022-08-14T08:36:41;23.60;99.30
13035;DHT22;6584;48.022;11.810;2022-08-14T08:39:08;23.70;99.00
13035;DHT22;6584;48.022;11.810;2022-08-14T08:41:44;23.90;99.10
13035;DHT22;6584;48.022;11.810;2022-08-14T08:44:11;24.00;98.00
13035;DHT22;6584;48.022;11.810;2022-08-14T08:46:37;24.10;98.80
13035;DHT22;6584;48.022;11.810;2022-08-14T08:49:05;24.10;98.70
13035;DHT22;6584;48.022;11.810;2022-08-14T08:51:36;24.00;98.70
13035;DHT22;6584;48.022;11.810;2022-08-14T08:54:15;23.90;98.40
13035;DHT22;6584;48.022;11.810;2022-08-14T08:56:49;23.90;98.20
13035;DHT22;6584;48.022;11.810;2022-08-14T08:59:24;23.80;99.10
13035;DHT22;6584;48.022;11.810;2022-08-14T09:01:57;24.10;98.30
13035;DHT22;6584;48.022;11.810;2022-08-14T09:04:25;24.20;97.70
13035;DHT22;6584;48.022;11.810;2022-08-14T09:06:51;24.20;97.80
13035;DHT22;6584;48.022;11.810;2022-08-14T09:09:29;24.40;98.20
13035;DHT22;6584;48.022;11.810;2022-08-14T09:11:56;24.50;97.60
13035;DHT22;6584;48.022;11.810;2022-08-14T09:14:23;24.60;97.50
13035;DHT22;6584;48.022;11.810;2022-08-14T09:16:51;24.60;97.20
13035;DHT22;6584;48.022;11.810;2022-08-14T09:19:18;24.70;97.70
13035;DHT22;6584;48.022;11.810;2022-08-14T09:21:44;24.70;97.00
13035;DHT22;6584;48.022;11.810;2022-08-14T09:24:11;24.70;96.90
13035;DHT22;6584;48.022;11.810;2022-08-14T09:26:37;24.60;97.10
13035;DHT22;6584;48.022;11.810;2022-08-14T09:29:04;24.60;97.30
13035;DHT22;6584;48.022;11.810;2022-08-14T09:31:32;24.60;96.90
13035;DHT22;6584;48.022;11.810;2022-08-14T09:34:17;24.60;96.50
13035;DHT22;6584;48.022;11.810;2022-08-14T09:39:51;24.60;96.90
13035;DHT22;6584;48.022;11.810;2022-08-14T09:42:28;24.80;97.30
13035;DHT22;6584;48.022;11.810;2022-08-14T09:47:48;25.00;96.50
13035;DHT22;6584;48.022;11.810;2022-08-14T09:50:27;24.90;97.20
13035;DHT22;6584;48.022;11.810;2022-08-14T09:52:59;25.00;96.50
13035;DHT22;6584;48.022;11.810;2022-08-14T09:55:28;25.20;97.10
13035;DHT22;6584;48.022;11.810;2022-08-14T10:00:54;25.50;96.20
13035;DHT22;6584;48.022;11.810;2022-08-14T10:03:27;25.40;95.80
13035;DHT22;6584;48.022;11.810;2022-08-14T10:06:06;25.50;95.50
13035;DHT22;6584;48.022;11.810;2022-08-14T10:08:50;25.40;95.70
13035;DHT22;6584;48.022;11.810;2022-08-14T10:11:17;25.20;95.60
13035;DHT22;6584;48.022;11.810;2022-08-14T10:13:45;25.40;95.70
13035;DHT22;6584;48.022;11.810;2022-08-14T10:16:11;25.30;96.10
13035;DHT22;6584;48.022;11.810;2022-08-14T10:18:37;25.30;94.30
13035;DHT22;6584;48.022;11.810;2022-08-14T10:21:07;25.40;94.80
13035;DHT22;6584;48.022;11.810;2022-08-14T10:23:44;25.60;95.30
13035;DHT22;6584;48.022;11.810;2022-08-14T10:26:15;25.60;94.90
13035;DHT22;6584;48.022;11.810;2022-08-14T10:28:44;25.60;94.90
13035;DHT22;6584;48.022;11.810;2022-08-14T10:31:23;25.60;95.00
13035;DHT22;6584;48.022;11.810;2022-08-14T10:34:04;25.70;94.50
13035;DHT22;6584;48.022;11.810;2022-08-14T10:36:41;25.80;93.90
13035;DHT22;6584;48.022;11.810;2022-08-14T10:39:21;25.90;94.30
13035;DHT22;6584;48.022;11.810;2022-08-14T10:41:48;26.00;94.30
13035;DHT22;6584;48.022;11.810;2022-08-14T10:44:38;26.10;94.20
13035;DHT22;6584;48.022;11.810;2022-08-14T10:47:05;26.10;94.50
13035;DHT22;6584;48.022;11.810;2022-08-14T10:49:41;26.10;93.90
13035;DHT22;6584;48.022;11.810;2022-08-14T10:52:21;26.00;93.00
13035;DHT22;6584;48.022;11.810;2022-08-14T10:54:49;26.10;93.20
13035;DHT22;6584;48.022;11.810;2022-08-14T10:57:22;26.20;92.80
13035;DHT22;6584;48.022;11.810;2022-08-14T10:59:56;26.30;92.30
13035;DHT22;6584;48.022;11.810;2022-08-14T11:05:12;26.40;92.40
13035;DHT22;6584;48.022;11.810;2022-08-14T11:10:23;26.40;92.80
13035;DHT22;6584;48.022;11.810;2022-08-14T11:12:54;26.20;92.80
13035;DHT22;6584;48.022;11.810;2022-08-14T11:15:24;26.10;92.60
13035;DHT22;6584;48.022;11.810;2022-08-14T11:17:52;26.10;91.90
13035;DHT22;6584;48.022;11.810;2022-08-14T11:20:22;26.10;91.50
13035;DHT22;6584;48.022;11.810;2022-08-14T11:22:51;26.50;92.60
13035;DHT22;6584;48.022;11.810;2022-08-14T11:25:19;26.60;92.30
13035;DHT22;6584;48.022;11.810;2022-08-14T11:27:49;26.80;92.00
13035;DHT22;6584;48.022;11.810;2022-08-14T11:30:17;26.70;91.60
13035;DHT22;6584;48.022;11.810;2022-08-14T11:32:45;26.70;90.80
13035;DHT22;6584;48.022;11.810;2022-08-14T11:35:19;26.60;90.70
13035;DHT22;6584;48.022;11.810;2022-08-14T11:37:57;26.60;90.40
13035;DHT22;6584;48.022;11.810;2022-08-14T11:40:25;26.70;90.10
13035;DHT22;6584;48.022;11.810;2022-08-14T11:42:52;26.60;90.20
13035;DHT22;6584;48.022;11.810;2022-08-14T11:45:26;26.70;87.10
13035;DHT22;6584;48.022;11.810;2022-08-14T11:47:53;26.70;87.30
13035;DHT22;6584;48.022;11.810;2022-08-14T11:50:23;26.60;87.00
13035;DHT22;6584;48.022;11.810;2022-08-14T11:52:50;26.70;87.40
13035;DHT22;6584;48.022;11.810;2022-08-14T11:55:18;26.60;85.60
13035;DHT22;6584;48.022;11.810;2022-08-14T11:57:44;26.80;87.00
13035;DHT22;6584;48.022;11.810;2022-08-14T12:00:15;26.80;85.20
13035;DHT22;6584;48.022;11.810;2022-08-14T12:02:58;26.90;84.60
13035;DHT22;6584;48.022;11.810;2022-08-14T12:05:42;27.10;84.20
13035;DHT22;6584;48.022;11.810;2022-08-14T12:08:08;27.10;84.50
13035;DHT22;6584;48.022;11.810;2022-08-14T12:10:41;27.10;84.60
13035;DHT22;6584;48.022;11.810;2022-08-14T12:13:15;27.10;84.20
13035;DHT22;6584;48.022;11.810;2022-08-14T12:15:42;27.20;84.70
13035;DHT22;6584;48.022;11.810;2022-08-14T12:18:09;27.20;84.90
13035;DHT22;6584;48.022;11.810;2022-08-14T12:20:39;27.20;84.40
13035;DHT22;6584;48.022;11.810;2022-08-14T12:23:18;27.10;83.00
13035;DHT22;6584;48.022;11.810;2022-08-14T12:25:44;27.00;84.90
13035;DHT22;6584;48.022;11.810;2022-08-14T12:28:10;27.20;84.20
13035;DHT22;6584;48.022;11.810;2022-08-14T12:30:38;27.30;83.30
13035;DHT22;6584;48.022;11.810;2022-08-14T12:33:27;27.30;84.60
13035;DHT22;6584;48.022;11.810;2022-08-14T12:35:55;27.40;86.50
13035;DHT22;6584;48.022;11.810;2022-08-14T12:38:32;27.40;83.80
13035;DHT22;6584;48.022;11.810;2022-08-14T12:41:00;27.30;81.90
13035;DHT22;6584;48.022;11.810;2022-08-14T12:43:26;27.30;85.00
13035;DHT22;6584;48.022;11.810;2022-08-14T12:45:53;27.40;84.50
13035;DHT22;6584;48.022;11.810;2022-08-14T12:48:23;27.30;84.60
13035;DHT22;6584;48.022;11.810;2022-08-14T12:50:49;27.40;84.70
13035;DHT22;6584;48.022;11.810;2022-08-14T12:53:20;27.50;84.30
13035;DHT22;6584;48.022;11.810;2022-08-14T12:55:57;27.50;85.80
13035;DHT22;6584;48.022;11.810;2022-08-14T12:58:27;27.60;82.80
13035;DHT22;6584;48.022;11.810;2022-08-14T13:00:54;27.50;82.50
13035;DHT22;6584;48.022;11.810;2022-08-14T13:03:25;27.40;83.70
13035;DHT22;6584;48.022;11.810;2022-08-14T13:05:51;27.50;83.20
13035;DHT22;6584;48.022;11.810;2022-08-14T13:08:17;27.50;81.90
13035;DHT22;6584;48.022;11.810;2022-08-14T13:10:43;27.70;83.20
13035;DHT22;6584;48.022;11.810;2022-08-14T13:13:11;27.60;83.70
13035;DHT22;6584;48.022;11.810;2022-08-14T13:15:39;27.60;84.00
13035;DHT22;6584;48.022;11.810;2022-08-14T13:18:08;27.60;84.00
13035;DHT22;6584;48.022;11.810;2022-08-14T13:20:35;27.70;84.40
13035;DHT22;6584;48.022;11.810;2022-08-14T13:23:01;27.70;84.00
13035;DHT22;6584;48.022;11.810;2022-08-14T13:25:27;27.80;83.50
13035;DHT22;6584;48.022;11.810;2022-08-14T13:27:55;27.80;83.20
13035;DHT22;6584;48.022;11.810;2022-08-14T13:30:22;27.70;83.50
13035;DHT22;6584;48.022;11.810;2022-08-14T13:32:53;27.80;84.10
13035;DHT22;6584;48.022;11.810;2022-08-14T13:35:20;27.80;83.10
13035;DHT22;6584;48.022;11.810;2022-08-14T13:37:47;27.80;83.60
13035;DHT22;6584;48.022;11.810;2022-08-14T13:40:19;27.80;83.20
13035;DHT22;6584;48.022;11.810;2022-08-14T13:42:46;27.80;84.20
13035;DHT22;6584;48.022;11.810;2022-08-14T13:45:13;27.90;83.70
13035;DHT22;6584;48.022;11.810;2022-08-14T13:47:40;27.90;82.10
13035;DHT22;6584;48.022;11.810;2022-08-14T13:50:11;28.00;81.50
13035;DHT22;6584;48.022;11.810;2022-08-14T13:52:41;27.90;81.90
13035;DHT22;6584;48.022;11.810;2022-08-14T13:55:07;27.90;80.30
13035;DHT22;6584;48.022;11.810;2022-08-14T13:57:40;27.90;80.80
13035;DHT22;6584;48.022;11.810;2022-08-14T14:00:10;27.90;80.50
13035;DHT22;6584;48.022;11.810;2022-08-14T14:02:40;27.90;81.20
13035;DHT22;6584;48.022;11.810;2022-08-14T14:05:07;27.90;81.30
13035;DHT22;6584;48.022;11.810;2022-08-14T14:07:34;28.00;80.40
13035;DHT22;6584;48.022;11.810;2022-08-14T14:10:03;28.00;79.60
13035;DHT22;6584;48.022;11.810;2022-08-14T14:12:29;28.00;79.50
13035;DHT22;6584;48.022;11.810;2022-08-14T14:14:55;28.00;82.20
13035;DHT22;6584;48.022;11.810;2022-08-14T14:17:23;28.00;79.50
13035;DHT22;6584;48.022;11.810;2022-08-14T14:19:51;28.10;77.20
13035;DHT22;6584;48.022;11.810;2022-08-14T14:22:17;28.10;78.20
13035;DHT22;6584;48.022;11.810;2022-08-14T14:24:43;28.10;78.20
13035;DHT22;6584;48.022;11.810;2022-08-14T14:27:10;27.90;75.70
13035;DHT22;6584;48.022;11.810;2022-08-14T14:29:36;27.90;77.00
13035;DHT22;6584;48.022;11.810;2022-08-14T14:32:03;27.90;77.80
13035;DHT22;6584;48.022;11.810;2022-08-14T14:34:30;28.00;77.50
13035;DHT22;6584;48.022;11.810;2022-08-14T14:36:59;28.10;77.60
13035;DHT22;6584;48.022;11.810;2022-08-14T14:39:28;28.10;78.20
13035;DHT22;6584;48.022;11.810;2022-08-14T14:41:55;28.10;78.30
13035;DHT22;6584;48.022;11.810;2022-08-14T14:44:24;28.10;75.90
13035;DHT22;6584;48.022;11.810;2022-08-14T14:46:51;28.00;76.80
13035;DHT22;6584;48.022;11.810;2022-08-14T14:49:20;28.10;79.00
13035;DHT22;6584;48.022;11.810;2022-08-14T14:51:46;28.10;75.60
13035;DHT22;6584;48.022;11.810;2022-08-14T14:54:12;28.10;75.90
13035;DHT22;6584;48.022;11.810;2022-08-14T14:56:41;28.00;79.10
13035;DHT22;6584;48.022;11.810;2022-08-14T14:59:07;28.10;79.10
13035;DHT22;6584;48.022;11.810;2022-08-14T15:01:34;28.10;79.00
13035;DHT22;6584;48.022;11.810;2022-08-14T15:04:01;28.10;80.30
13035;DHT22;6584;48.022;11.810;2022-08-14T15:06:28;28.20;78.20
13035;DHT22;6584;48.022;11.810;2022-08-14T15:08:54;28.20;79.60
13035;DHT22;6584;48.022;11.810;2022-08-14T15:11:19;28.10;77.80
13035;DHT22;6584;48.022;11.810;2022-08-14T15:13:45;28.10;76.10
13035;DHT22;6584;48.022;11.810;2022-08-14T15:16:11;28.10;76.50
13035;DHT22;6584;48.022;11.810;2022-08-14T15:18:37;28.10;75.80
13035;DHT22;6584;48.022;11.810;2022-08-14T15:21:03;28.10;75.60
13035;DHT22;6584;48.022;11.810;2022-08-14T15:23:29;28.20;77.10
13035;DHT22;6584;48.022;11.810;2022-08-14T15:25:55;28.10;77.30
13035;DHT22;6584;48.022;11.810;2022-08-14T15:28:21;28.10;77.30
13035;DHT22;6584;48.022;11.810;2022-08-14T15:30:48;28.10;77.00
13035;DHT22;6584;48.022;11.810;2022-08-14T15:33:14;28.10;79.10
13035;DHT22;6584;48.022;11.810;2022-08-14T15:35:40;28.10;78.60
13035;DHT22;6584;48.022;11.810;2022-08-14T15:38:06;28.10;79.50
13035;DHT22;6584;48.022;11.810;2022-08-14T15:40:39;28.20;78.80
13035;DHT22;6584;48.022;11.810;2022-08-14T15:43:07;28.10;77.30
13035;DHT22;6584;48.022;11.810;2022-08-14T15:45:39;28.00;76.60
13035;DHT22;6584;48.022;11.810;2022-08-14T15:48:08;27.90;78.20
13035;DHT22;6584;48.022;11.810;2022-08-14T15:50:34;27.90;78.10
13035;DHT22;6584;48.022;11.810;2022-08-14T15:52:59;27.90;77.60
13035;DHT22;6584;48.022;11.810;2022-08-14T15:55:25;27.80;78.70